Nieuwpoort, Belgium
Current Conditions -  °F | °C
As of 1:55 AM on Wednesday 28 Jan 2015 (Local Time) from EBFN Reporting Station
Broken Clouds Broken Clouds  
Wind Chill: 37°   Ceiling: 3400
Heat Index: 43°   Visibility: 6mi
Dew Point: 39°   Wind: 10mph
Humidity: 87%   Direction: 220°SW
Pressure: 30.09"   Gusts: NA
Location:  51.13°N, 2.75°E
Report Text: EBFN 280055Z 22009KT 9999 FEW022 BKN034 06/04 Q1019 BLU
Loading
Personal Weather Stations






























Interactive Weather Map New forecast layout! Learn more

10-Day Weather Forecast

Advertisements
Track Severe Weather on mobile